VLVT Airport Information

Runway Information
Runway 13 Length 9843 ft width 148 ft
Elevation 563 ft Threshold ft Heading 135
Runway 31 Length 9843 ft Width 148 ft
Elevation 563 ft Threshold ft Heading 315
Airport Frequencies
Type APP Name VIENTIANE Frequency 119.7 MHZ
Type TWR Name VIENTIANE Frequency 118.1 MHZ
Airport Navaids
Type NDB Name Vientiane Frequency 205 KHZ
Type NDB Name Thangone Frequency 405 KHZ
Type VOR-DME Name Vientiane Frequency 117500 KHZ
Type NDB Name Wattay Frequency 389 KHZ
Airport Weather Information & NOTAM
ADDS - METARS form results

(0857 UTC 01 October 2022)
Data provider http://aviationweather.gov/metar/data/
 
METAR text: VLVT 010830Z 36004KT 5000 RA BKN013 BKN083 26/26 Q1006 NOSIG
Conditions at: VLVT (VIENTIANE/WATTAY, LA) observed 0830 UTC 01 October 2022
Temperature: 26.0°C (79°F)
Dewpoint: 26.0°C (79°F) [RH = 100%]
Pressure (altimeter): 29.70 inches Hg (1006.0 mb)
Winds: from the N (360 degrees) at 5 MPH (4 knots; 2.1 m/s)
Visibility: 3 miles ( 5 km)
Ceiling: 1300 feet AGL
Clouds: broken clouds at 1300 feet AGL
broken clouds at 8300 feet AGL
Weather: RA  (moderate rain)

METAR text: VLVT 010800Z 34002KT 5000 RA BKN013 BKN083 26/26 Q1006 NOSIG
Conditions at: VLVT (VIENTIANE/WATTAY, LA) observed 0800 UTC 01 October 2022
Temperature: 26.0°C (79°F)
Dewpoint: 26.0°C (79°F) [RH = 100%]
Pressure (altimeter): 29.70 inches Hg (1006.0 mb)
Winds: from the NNW (340 degrees) at 2 MPH (2 knots; 1.0 m/s)
Visibility: 3 miles ( 5 km)
Ceiling: 1300 feet AGL
Clouds: broken clouds at 1300 feet AGL
broken clouds at 8300 feet AGL
Weather: RA  (moderate rain)

Forecast for: VLVT (VIENTIANE/WATTAY, LA)
Text: TAF VLVT 010500Z 0106/0206 14008KT 8000 SCT016 BKN040 SCT083
Forecast period: 0600 UTC 01 October 2022 to 0600 UTC 02 October 2022
Forecast type: FROM: standard forecast or significant change
Winds: from the SE (140 degrees) at 9 MPH (8 knots; 4.1 m/s)
Visibility: 5 miles (8 km)
Ceiling: 4000 feet AGL
Clouds: scattered clouds at 1600 feet AGL
broken clouds at 4000 feet AGL
scattered clouds at 8300 feet AGL
Weather: no significant weather forecast for this period